Audrey — PD9331 — position and weather

sailwx.info

Track history (hours):
 
Tides and Currents Weather Stations Pressure Air Temp Water Temp Dewpoint Dewpoint Depression Visibility Wind Speed Wind Dir Waves Ship Positions

Audrey

Last reported at 2016-May-30 08:32 UTC. Time now 2016-May-31 10:08 UTC.
Position N 51°17' E 006°42'.

Length 85 m; draft 2.4 m.

Type: Wing in ground effect craft. MMSI: 244660106.

Date/timePositionNaut miles runAvg speedWind from/ knotsBaromVisibWave heightAir tempDewpointWater temp
2016-May-30 08:32N 51°17' E 006°42'6 6.1
2016-May-30 07:33N 51°11' E 006°44'6 5.7
2016-May-30 06:33N 51°08' E 006°51'10 0.6
2016-May-29 14:33N 50°59' E 006°60'7 6.9
2016-May-29 13:32N 50°52' E 007°01'7 7.6
2016-May-29 12:33N 50°45' E 007°06'73 2.4
2016-May-28 06:33N 50°06' E 008°43'4 3.6
2016-May-28 05:33N 50°08' E 008°48'3 3.1
2016-May-28 04:33N 50°07' E 008°53'1 1.4
2016-May-28 03:33N 50°07' E 008°55'0 0.0
2016-May-28 02:33N 50°07' E 008°55'0 0.0
2016-May-28 01:33N 50°07' E 008°55'0 0.0
2016-May-28 00:33N 50°07' E 008°55'0 0.0
2016-May-27 23:33N 50°07' E 008°55'0 0.0
2016-May-27 22:33N 50°07' E 008°55'0 0.0
2016-May-27 21:33N 50°07' E 008°55'0 0.0
2016-May-27 20:33N 50°07' E 008°55'0 0.0
2016-May-27 19:33N 50°07' E 008°55'0 0.0
2016-May-27 18:33N 50°07' E 008°55'0 0.0
2016-May-27 17:33N 50°07' E 008°55'0 0.0
2016-May-27 16:33N 50°07' E 008°55'0 0.2
2016-May-27 15:33N 50°07' E 008°55'0 0.0
2016-May-27 14:33N 50°07' E 008°55'0 0.0
2016-May-27 13:33N 50°07' E 008°55'0 0.0
2016-May-27 12:33N 50°07' E 008°55'0 0.0
2016-May-27 11:33N 50°07' E 008°55'0 0.0
2016-May-27 10:33N 50°07' E 008°55'0 0.0
2016-May-27 09:33N 50°07' E 008°55'0 0.0
2016-May-27 08:33N 50°07' E 008°55'0 0.0
2016-May-27 07:33N 50°07' E 008°55'0 0.0
2016-May-27 06:33N 50°07' E 008°55'0 0.0
2016-May-27 05:33N 50°07' E 008°55'0 0.0
2016-May-27 04:33N 50°07' E 008°55'0 0.0
2016-May-27 03:34N 50°07' E 008°55'0 0.0
2016-May-27 02:33N 50°07' E 008°55'0 0.0
2016-May-27 01:33N 50°07' E 008°55'0 0.0
2016-May-27 00:33N 50°07' E 008°55'0 0.0
2016-May-26 23:33N 50°07' E 008°55'0 0.0
2016-May-26 22:33N 50°07' E 008°55'0 0.0
2016-May-26 21:34N 50°07' E 008°55'0 0.0
2016-May-26 20:33N 50°07' E 008°55'0 0.0
2016-May-26 19:34N 50°07' E 008°55'0 0.0
2016-May-26 18:33N 50°07' E 008°55'0 0.0
2016-May-26 17:33N 50°07' E 008°55'0 0.0
2016-May-26 16:33N 50°07' E 008°55'0 0.0
2016-May-26 15:33N 50°07' E 008°55'0 0.0
2016-May-26 14:33N 50°07' E 008°55'0 0.0
2016-May-26 13:33N 50°07' E 008°55'0 0.0
2016-May-26 12:33N 50°07' E 008°55'2 2.0
2016-May-26 11:33N 50°08' E 008°52'3 3.5
2016-May-26 10:34N 50°07' E 008°47'3 3.1
2016-May-26 09:33N 50°06' E 008°42'5 3.4
2016-May-26 08:12N 50°05' E 008°35'3 3.8
2016-May-26 07:32N 50°04' E 008°32'65 1.6
2016-May-24 15:19N 50°43' E 007°09'4 4.5
2016-May-24 14:33N 50°46' E 007°05'4 4.4
2016-May-24 13:33N 50°49' E 007°01'3 2.9
2016-May-24 12:33N 50°52' E 007°02'3 2.6
2016-May-24 11:31N 50°54' E 006°59'13 3.9
2016-May-24 08:09N 51°07' E 006°53'3 4.3
2016-May-24 07:29N 51°10' E 006°51'2 2.3
2016-May-24 06:33N 51°10' E 006°48'4 4.0
2016-May-24 05:33N 51°13' E 006°44'2 2.2
2016-May-24 04:33N 51°15' E 006°44'14 1.2
2016-May-23 16:31N 51°29' E 006°41'3 3.4
2016-May-23 15:33N 51°33' E 006°41'4 3.6
2016-May-23 14:20N 51°36' E 006°36'4 4.7
2016-May-23 13:33N 51°40' E 006°34'11 4.5
2016-May-23 11:05N 51°46' E 006°20'47 1.1
2016-May-21 14:32N 51°49' E 005°03'7 6.9
2016-May-21 13:34N 51°49' E 004°52'7 7.4
2016-May-21 12:34N 51°49' E 004°40'1 0.8
2016-May-21 11:34N 51°49' E 004°39'24 5.7
2016-May-21 07:17N 51°38' E 004°04'5 7.4
2016-May-21 06:33N 51°34' E 003°58'7 6.7
2016-May-21 05:33N 51°27' E 004°01'5 5.2
2016-May-21 04:33N 51°23' E 003°57'5 5.4
2016-May-21 03:33N 51°20' E 003°49'4 3.6
2016-May-21 02:33N 51°17' E 003°51'0 0.0
2016-May-21 01:34N 51°17' E 003°51'0 0.0
2016-May-21 00:34N 51°17' E 003°51'0 0.0
2016-May-20 23:34N 51°17' E 003°51'0 0.0
2016-May-20 22:34N 51°17' E 003°51'0 0.0
2016-May-20 21:34N 51°17' E 003°51'0 0.0
2016-May-20 20:33N 51°17' E 003°51'0 0.0
2016-May-20 19:34N 51°17' E 003°51'0 0.1
2016-May-20 18:33N 51°16' E 003°51'6 5.7
2016-May-20 17:34N 51°11' E 003°48'8 7.6
2016-May-20 16:33N 51°05' E 003°40'4 4.2
2016-May-20 15:33N 51°06' E 003°33'7 5.2
2016-May-20 14:15N 51°07' E 003°23'2 2.5
2016-May-20 13:25N 51°08' E 003°20'0 0.0
2016-May-20 12:16N 51°08' E 003°20'0 0.0
2016-May-20 11:27N 51°08' E 003°20'0 0.0
2016-May-20 10:32N 51°08' E 003°20'0 0.0
2016-May-20 09:28N 51°08' E 003°20'  
Track history (hours):
 
Tides and Currents Weather Stations Pressure Air Temp Water Temp Dewpoint Dewpoint Depression Visibility Wind Speed Wind Dir Waves Ship Positions

Audrey

Last reported at 2016-May-30 08:32 UTC. Time now 2016-May-31 10:08 UTC.
Position N 51°17' E 006°42'.

Length 85 m; draft 2.4 m.

Type: Wing in ground effect craft. MMSI: 244660106.

Date/timePositionNaut miles runAvg speedWind from/ knotsBaromVisibWave heightAir tempDewpointWater temp
2016-May-30 08:32N 51°17' E 006°42'6 6.1
2016-May-30 07:33N 51°11' E 006°44'6 5.7
2016-May-30 06:33N 51°08' E 006°51'10 0.6
2016-May-29 14:33N 50°59' E 006°60'7 6.9
2016-May-29 13:32N 50°52' E 007°01'7 7.6
2016-May-29 12:33N 50°45' E 007°06'73 2.4
2016-May-28 06:33N 50°06' E 008°43'4 3.6
2016-May-28 05:33N 50°08' E 008°48'3 3.1
2016-May-28 04:33N 50°07' E 008°53'1 1.4
2016-May-28 03:33N 50°07' E 008°55'0 0.0
2016-May-28 02:33N 50°07' E 008°55'0 0.0
2016-May-28 01:33N 50°07' E 008°55'0 0.0
2016-May-28 00:33N 50°07' E 008°55'0 0.0
2016-May-27 23:33N 50°07' E 008°55'0 0.0
2016-May-27 22:33N 50°07' E 008°55'0 0.0
2016-May-27 21:33N 50°07' E 008°55'0 0.0
2016-May-27 20:33N 50°07' E 008°55'0 0.0
2016-May-27 19:33N 50°07' E 008°55'0 0.0
2016-May-27 18:33N 50°07' E 008°55'0 0.0
2016-May-27 17:33N 50°07' E 008°55'0 0.0
2016-May-27 16:33N 50°07' E 008°55'0 0.2
2016-May-27 15:33N 50°07' E 008°55'0 0.0
2016-May-27 14:33N 50°07' E 008°55'0 0.0
2016-May-27 13:33N 50°07' E 008°55'0 0.0
2016-May-27 12:33N 50°07' E 008°55'0 0.0
2016-May-27 11:33N 50°07' E 008°55'0 0.0
2016-May-27 10:33N 50°07' E 008°55'0 0.0
2016-May-27 09:33N 50°07' E 008°55'0 0.0
2016-May-27 08:33N 50°07' E 008°55'0 0.0
2016-May-27 07:33N 50°07' E 008°55'0 0.0
2016-May-27 06:33N 50°07' E 008°55'0 0.0
2016-May-27 05:33N 50°07' E 008°55'0 0.0
2016-May-27 04:33N 50°07' E 008°55'0 0.0
2016-May-27 03:34N 50°07' E 008°55'0 0.0
2016-May-27 02:33N 50°07' E 008°55'0 0.0
2016-May-27 01:33N 50°07' E 008°55'0 0.0
2016-May-27 00:33N 50°07' E 008°55'0 0.0
2016-May-26 23:33N 50°07' E 008°55'0 0.0
2016-May-26 22:33N 50°07' E 008°55'0 0.0
2016-May-26 21:34N 50°07' E 008°55'0 0.0
2016-May-26 20:33N 50°07' E 008°55'0 0.0
2016-May-26 19:34N 50°07' E 008°55'0 0.0
2016-May-26 18:33N 50°07' E 008°55'0 0.0
2016-May-26 17:33N 50°07' E 008°55'0 0.0
2016-May-26 16:33N 50°07' E 008°55'0 0.0
2016-May-26 15:33N 50°07' E 008°55'0 0.0
2016-May-26 14:33N 50°07' E 008°55'0 0.0
2016-May-26 13:33N 50°07' E 008°55'0 0.0
2016-May-26 12:33N 50°07' E 008°55'2 2.0
2016-May-26 11:33N 50°08' E 008°52'3 3.5
2016-May-26 10:34N 50°07' E 008°47'3 3.1
2016-May-26 09:33N 50°06' E 008°42'5 3.4
2016-May-26 08:12N 50°05' E 008°35'3 3.8
2016-May-26 07:32N 50°04' E 008°32'65 1.6
2016-May-24 15:19N 50°43' E 007°09'4 4.5
2016-May-24 14:33N 50°46' E 007°05'4 4.4
2016-May-24 13:33N 50°49' E 007°01'3 2.9
2016-May-24 12:33N 50°52' E 007°02'3 2.6
2016-May-24 11:31N 50°54' E 006°59'13 3.9
2016-May-24 08:09N 51°07' E 006°53'3 4.3
2016-May-24 07:29N 51°10' E 006°51'2 2.3
2016-May-24 06:33N 51°10' E 006°48'4 4.0
2016-May-24 05:33N 51°13' E 006°44'2 2.2
2016-May-24 04:33N 51°15' E 006°44'14 1.2
2016-May-23 16:31N 51°29' E 006°41'3 3.4
2016-May-23 15:33N 51°33' E 006°41'4 3.6
2016-May-23 14:20N 51°36' E 006°36'4 4.7
2016-May-23 13:33N 51°40' E 006°34'11 4.5
2016-May-23 11:05N 51°46' E 006°20'47 1.1
2016-May-21 14:32N 51°49' E 005°03'7 6.9
2016-May-21 13:34N 51°49' E 004°52'7 7.4
2016-May-21 12:34N 51°49' E 004°40'1 0.8
2016-May-21 11:34N 51°49' E 004°39'24 5.7
2016-May-21 07:17N 51°38' E 004°04'5 7.4
2016-May-21 06:33N 51°34' E 003°58'7 6.7
2016-May-21 05:33N 51°27' E 004°01'5 5.2
2016-May-21 04:33N 51°23' E 003°57'5 5.4
2016-May-21 03:33N 51°20' E 003°49'4 3.6
2016-May-21 02:33N 51°17' E 003°51'0 0.0
2016-May-21 01:34N 51°17' E 003°51'0 0.0
2016-May-21 00:34N 51°17' E 003°51'0 0.0
2016-May-20 23:34N 51°17' E 003°51'0 0.0
2016-May-20 22:34N 51°17' E 003°51'0 0.0
2016-May-20 21:34N 51°17' E 003°51'0 0.0
2016-May-20 20:33N 51°17' E 003°51'0 0.0
2016-May-20 19:34N 51°17' E 003°51'0 0.1
2016-May-20 18:33N 51°16' E 003°51'6 5.7
2016-May-20 17:34N 51°11' E 003°48'8 7.6
2016-May-20 16:33N 51°05' E 003°40'4 4.2
2016-May-20 15:33N 51°06' E 003°33'7 5.2
2016-May-20 14:15N 51°07' E 003°23'2 2.5
2016-May-20 13:25N 51°08' E 003°20'0 0.0
2016-May-20 12:16N 51°08' E 003°20'0 0.0
2016-May-20 11:27N 51°08' E 003°20'0 0.0
2016-May-20 10:32N 51°08' E 003°20'0 0.0
2016-May-20 09:28N 51°08' E 003°20'  

Dump ship's entire track history